Time;durP1;ratioP1;P1;durP2;ratioP2;P2;SDS_P1;SDS_P2;PMS_P1;PMS_P2;Temp;Humidity;BMP_temperature;BMP_pressure;BME280_temperature;BME280_humidity;BME280_pressure;Samples;Min_cycle;Max_cycle;Signal;HPM_P1;HPM_P2
2021/05/16 00:00:23;;;;;;;21.40;4.67;;;8.80;99.90;;;;;;5059215;28;20216;-65
2021/05/16 00:02:51;;;;;;;24.67;4.67;;;8.70;99.90;;;;;;5063022;28;20227;-65
2021/05/16 00:05:21;;;;;;;24.30;5.10;;;8.70;99.90;;;;;;5059451;28;20722;-65
2021/05/16 00:07:49;;;;;;;29.83;5.83;;;8.70;99.90;;;;;;5059993;28;20291;-65
2021/05/16 00:10:18;;;;;;;39.87;5.63;;;8.70;99.90;;;;;;5065626;28;20212;-65
2021/05/16 00:12:48;;;;;;;30.27;4.93;;;8.70;99.90;;;;;;5062842;28;20180;-65
2021/05/16 00:15:19;;;;;;;22.30;4.63;;;8.70;99.90;;;;;;5067690;28;20213;-65
2021/05/16 00:17:47;;;;;;;22.73;4.53;;;8.80;99.90;;;;;;5064461;28;20200;-65
2021/05/16 00:20:19;;;;;;;37.33;5.37;;;8.80;99.90;;;;;;5060420;28;20284;-65
2021/05/16 00:22:50;;;;;;;32.20;5.13;;;8.80;99.90;;;;;;5058653;28;20871;-65
2021/05/16 00:25:20;;;;;;;22.87;5.00;;;8.90;99.90;;;;;;5059143;28;20196;-65
2021/05/16 00:27:49;;;;;;;31.63;5.27;;;8.90;99.90;;;;;;5065903;28;20696;-65
2021/05/16 00:30:20;;;;;;;24.87;5.23;;;8.90;99.90;;;;;;5055148;28;20196;-65
2021/05/16 00:32:48;;;;;;;33.20;5.27;;;9.00;99.90;;;;;;5064932;28;20200;-65
2021/05/16 00:35:20;;;;;;;29.17;5.07;;;9.00;99.90;;;;;;5063844;28;20609;-65
2021/05/16 00:37:48;;;;;;;28.90;4.90;;;9.00;99.90;;;;;;5064123;28;20762;-65
2021/05/16 00:40:18;;;;;;;23.53;4.80;;;9.00;99.90;;;;;;5064131;28;20241;-65
2021/05/16 00:42:48;;;;;;;31.03;5.40;;;9.00;99.90;;;;;;5065439;28;20184;-65
2021/05/16 00:45:18;;;;;;;28.10;5.40;;;9.00;99.90;;;;;;5059714;28;20250;-65
2021/05/16 00:47:48;;;;;;;28.97;4.87;;;9.00;99.90;;;;;;5056841;28;20253;-65
2021/05/16 00:50:17;;;;;;;31.70;5.53;;;9.00;99.90;;;;;;5054872;28;20239;-65
2021/05/16 00:52:46;;;;;;;25.30;5.10;;;9.00;99.90;;;;;;5059330;28;20309;-65
2021/05/16 00:55:16;;;;;;;28.63;5.37;;;8.90;99.90;;;;;;5060689;28;20258;-65
2021/05/16 00:57:44;;;;;;;32.53;5.63;;;8.90;99.90;;;;;;5064170;28;20200;-65
2021/05/16 01:00:14;;;;;;;27.57;5.03;;;8.80;99.90;;;;;;5063704;28;20296;-65
2021/05/16 01:02:43;;;;;;;31.57;5.23;;;8.80;99.90;;;;;;5059043;28;20291;-66
2021/05/16 01:05:16;;;;;;;24.50;4.47;;;8.80;99.90;;;;;;5059487;28;20224;-65
2021/05/16 01:07:47;;;;;;;26.43;5.37;;;8.70;99.90;;;;;;5063940;28;20195;-65
2021/05/16 01:10:15;;;;;;;28.47;5.50;;;8.60;99.90;;;;;;5065225;28;20659;-65
2021/05/16 01:12:45;;;;;;;38.37;5.37;;;8.60;99.90;;;;;;5060346;28;20283;-65
2021/05/16 01:15:16;;;;;;;24.27;4.83;;;8.60;99.90;;;;;;5064590;28;20609;-65
2021/05/16 01:17:45;;;;;;;33.67;4.70;;;8.60;99.90;;;;;;5057291;28;20277;-65
2021/05/16 01:20:18;;;;;;;32.17;5.93;;;8.50;99.90;;;;;;5057704;28;20649;-65
2021/05/16 01:22:53;;;;;;;22.57;4.87;;;8.50;99.90;;;;;;5053390;28;20210;-65
2021/05/16 01:25:21;;;;;;;27.37;5.43;;;8.50;99.90;;;;;;5060300;28;20594;-65
2021/05/16 01:27:50;;;;;;;26.63;5.30;;;8.50;99.90;;;;;;5059070;28;20651;-65
2021/05/16 01:30:20;;;;;;;27.60;5.03;;;8.40;99.90;;;;;;5059781;28;20249;-65
2021/05/16 01:32:51;;;;;;;25.33;5.00;;;8.40;99.90;;;;;;5056963;28;20192;-65
2021/05/16 01:35:20;;;;;;;25.20;5.33;;;8.40;99.90;;;;;;5063364;28;20207;-65
2021/05/16 01:37:49;;;;;;;28.50;5.00;;;8.40;99.90;;;;;;5057901;28;20278;-65
2021/05/16 01:40:19;;;;;;;26.10;5.30;;;8.40;99.90;;;;;;5063859;28;20226;-66
2021/05/16 01:42:49;;;;;;;25.23;4.97;;;8.40;99.90;;;;;;5060164;28;20249;-65
2021/05/16 01:45:19;;;;;;;25.53;4.67;;;8.40;99.90;;;;;;5060569;28;20223;-65
2021/05/16 01:47:47;;;;;;;31.17;5.47;;;8.40;99.90;;;;;;5062088;28;20255;-65
2021/05/16 01:50:17;;;;;;;35.57;5.03;;;8.40;99.90;;;;;;5060340;28;20218;-65
2021/05/16 01:52:47;;;;;;;26.87;4.77;;;8.40;99.90;;;;;;5056764;28;20231;-65
2021/05/16 01:55:18;;;;;;;27.13;5.23;;;8.40;99.90;;;;;;5057446;28;20672;-65
2021/05/16 01:57:47;;;;;;;30.37;4.40;;;8.30;99.90;;;;;;5060358;28;20231;-65
2021/05/16 02:00:22;;;;;;;34.07;5.23;;;8.40;99.90;;;;;;5058645;28;20768;-65
2021/05/16 02:02:50;;;;;;;30.03;5.03;;;8.40;99.90;;;;;;5057801;28;20690;-65
2021/05/16 02:05:18;;;;;;;24.97;4.67;;;8.40;99.90;;;;;;5053800;28;20188;-65
2021/05/16 02:07:47;;;;;;;35.77;5.23;;;8.40;99.90;;;;;;5057499;28;20234;-65
2021/05/16 02:10:17;;;;;;;30.97;6.03;;;8.40;99.90;;;;;;5062742;28;20197;-65
2021/05/16 02:12:45;;;;;;;25.37;5.50;;;8.40;99.90;;;;;;5056446;28;20279;-65
2021/05/16 02:15:14;;;;;;;25.07;4.87;;;8.30;99.90;;;;;;5047228;28;20196;-65
2021/05/16 02:17:43;;;;;;;33.60;5.60;;;8.30;99.90;;;;;;5058977;28;20196;-65
2021/05/16 02:20:14;;;;;;;31.87;5.33;;;8.30;99.90;;;;;;5065301;28;20196;-65
2021/05/16 02:22:42;;;;;;;25.57;5.27;;;8.30;99.90;;;;;;5062801;28;20269;-65
2021/05/16 02:25:11;;;;;;;30.60;5.73;;;8.30;99.90;;;;;;5060370;28;20196;-65
2021/05/16 02:27:39;;;;;;;45.13;5.77;;;8.30;99.90;;;;;;5060050;28;20197;-65
2021/05/16 02:30:09;;;;;;;20.90;4.87;;;8.20;99.90;;;;;;5060296;28;20192;-65
2021/05/16 02:32:39;;;;;;;27.20;5.17;;;8.20;99.90;;;;;;5054346;28;20740;-65
2021/05/16 02:35:11;;;;;;;36.07;5.40;;;8.20;99.90;;;;;;5062114;28;20192;-65
2021/05/16 02:37:39;;;;;;;34.30;5.90;;;8.20;99.90;;;;;;5063637;28;20232;-65
2021/05/16 02:40:07;;;;;;;31.30;5.40;;;8.20;99.90;;;;;;5063245;28;20247;-65
2021/05/16 02:42:35;;;;;;;37.33;5.63;;;8.10;99.90;;;;;;5061672;28;20290;-65
2021/05/16 02:45:06;;;;;;;37.80;6.10;;;8.10;99.90;;;;;;5056502;28;20314;-65
2021/05/16 02:47:34;;;;;;;32.37;5.57;;;8.10;99.90;;;;;;5056809;28;20215;-65
2021/05/16 02:50:01;;;;;;;29.40;5.00;;;8.00;99.90;;;;;;5059400;28;20195;-65
2021/05/16 02:52:29;;;;;;;21.83;4.93;;;8.10;99.90;;;;;;5056368;28;20257;-65
2021/05/16 02:54:57;;;;;;;32.23;5.37;;;8.10;99.90;;;;;;5057058;28;20614;-65
2021/05/16 02:57:25;;;;;;;27.53;5.50;;;8.10;99.90;;;;;;5055992;28;20296;-66
2021/05/16 02:59:53;;;;;;;27.17;5.17;;;8.10;99.90;;;;;;5061132;28;20208;-66
2021/05/16 03:02:22;;;;;;;25.43;4.77;;;8.00;99.90;;;;;;5057980;28;20279;-66
2021/05/16 03:04:49;;;;;;;27.03;4.60;;;8.10;99.90;;;;;;5062454;28;20736;-66
2021/05/16 03:07:18;;;;;;;37.87;5.70;;;8.00;99.90;;;;;;5057062;28;20247;-66
2021/05/16 03:09:46;;;;;;;25.27;5.47;;;8.10;99.90;;;;;;5062528;28;20227;-66
2021/05/16 03:12:14;;;;;;;44.67;5.47;;;8.10;99.90;;;;;;5063234;28;20601;-66
2021/05/16 03:14:42;;;;;;;26.70;6.10;;;8.10;99.90;;;;;;5062519;28;20227;-67
2021/05/16 03:17:10;;;;;;;33.50;4.83;;;8.00;99.90;;;;;;5061234;28;20265;-66
2021/05/16 03:19:39;;;;;;;29.20;5.30;;;8.00;99.90;;;;;;5066517;28;20200;-66
2021/05/16 03:22:09;;;;;;;34.27;5.80;;;8.10;99.90;;;;;;5065268;28;20204;-66
2021/05/16 03:24:38;;;;;;;25.07;5.43;;;8.00;99.90;;;;;;5065558;28;20193;-66
2021/05/16 03:27:05;;;;;;;39.07;4.97;;;8.00;99.90;;;;;;5059302;28;20675;-66
2021/05/16 03:29:35;;;;;;;31.77;4.63;;;8.00;99.90;;;;;;5061273;28;20221;-67
2021/05/16 03:32:04;;;;;;;25.80;5.40;;;8.00;99.90;;;;;;5062850;28;20227;-66
2021/05/16 03:34:31;;;;;;;29.93;4.90;;;7.90;99.90;;;;;;5058034;28;20912;-66
2021/05/16 03:37:01;;;;;;;22.83;4.93;;;7.90;99.90;;;;;;5060437;28;20235;-66
2021/05/16 03:39:28;;;;;;;22.27;4.63;;;7.90;99.90;;;;;;5064832;28;20279;-66
2021/05/16 03:41:57;;;;;;;31.20;5.67;;;7.90;99.90;;;;;;5068250;28;20202;-67
2021/05/16 03:44:26;;;;;;;29.13;4.90;;;7.90;99.90;;;;;;5060581;28;20194;-66
2021/05/16 03:46:54;;;;;;;26.57;5.00;;;7.80;99.90;;;;;;5058982;28;20290;-66
2021/05/16 03:49:22;;;;;;;26.27;4.90;;;7.80;99.90;;;;;;5059841;28;20234;-66
2021/05/16 03:51:50;;;;;;;29.97;4.87;;;7.70;99.90;;;;;;5059543;28;20199;-66
2021/05/16 03:54:19;;;;;;;24.90;4.67;;;7.70;99.90;;;;;;5062071;28;20184;-66
2021/05/16 03:56:47;;;;;;;23.27;4.87;;;7.70;99.90;;;;;;5067065;28;20231;-66
2021/05/16 03:59:15;;;;;;;21.97;4.33;;;7.60;99.90;;;;;;5063890;28;20238;-66
2021/05/16 04:01:43;;;;;;;30.77;5.60;;;7.60;99.90;;;;;;5059955;28;20277;-65
2021/05/16 04:04:11;;;;;;;37.77;5.90;;;7.70;99.90;;;;;;5057912;28;20249;-66
2021/05/16 04:06:40;;;;;;;30.87;5.83;;;7.70;99.90;;;;;;5061136;28;20199;-66
2021/05/16 04:09:08;;;;;;;29.63;5.57;;;7.60;99.90;;;;;;5068219;28;20224;-66
2021/05/16 04:11:36;;;;;;;22.17;4.93;;;7.60;99.90;;;;;;5065996;28;20660;-66
2021/05/16 04:14:06;;;;;;;30.97;5.73;;;7.60;99.90;;;;;;5068512;28;20219;-66
2021/05/16 04:16:34;;;;;;;27.77;5.20;;;7.70;99.90;;;;;;5064393;28;20239;-66
2021/05/16 04:19:01;;;;;;;19.13;5.30;;;7.70;99.90;;;;;;5057714;28;20661;-66
2021/05/16 04:21:30;;;;;;;25.13;5.10;;;7.60;99.90;;;;;;5063283;28;20679;-66
2021/05/16 04:23:57;;;;;;;23.77;5.50;;;7.70;99.90;;;;;;5057487;28;20211;-66
2021/05/16 04:26:25;;;;;;;35.87;5.97;;;7.70;99.90;;;;;;5062795;28;20192;-66
2021/05/16 04:28:54;;;;;;;16.17;4.77;;;7.70;99.90;;;;;;5065694;28;20704;-66
2021/05/16 04:31:22;;;;;;;22.67;6.00;;;7.80;99.90;;;;;;5056757;28;20240;-66
2021/05/16 04:33:50;;;;;;;33.13;6.20;;;7.80;99.90;;;;;;5061092;28;20184;-66
2021/05/16 04:36:19;;;;;;;19.43;5.33;;;7.90;99.90;;;;;;5060873;28;20291;-66
2021/05/16 04:38:48;;;;;;;28.37;6.53;;;7.90;99.90;;;;;;5055413;28;20224;-65
2021/05/16 04:41:16;;;;;;;24.27;6.13;;;7.90;99.90;;;;;;5067241;28;20250;-66
2021/05/16 04:43:44;;;;;;;27.43;6.50;;;7.90;99.90;;;;;;5059576;28;20283;-66
2021/05/16 04:46:13;;;;;;;24.90;6.10;;;8.00;99.90;;;;;;5056394;28;20246;-66
2021/05/16 04:48:41;;;;;;;25.10;5.43;;;8.10;99.90;;;;;;5062933;28;20193;-66
2021/05/16 04:51:09;;;;;;;24.23;6.30;;;8.10;99.90;;;;;;5063850;28;20189;-66
2021/05/16 04:53:37;;;;;;;27.13;6.50;;;8.20;99.90;;;;;;5066860;28;20243;-66
2021/05/16 04:56:05;;;;;;;27.07;5.47;;;8.30;99.90;;;;;;5061287;28;20280;-66
2021/05/16 04:58:37;;;;;;;21.77;5.80;;;8.30;99.90;;;;;;5060494;28;21292;-66
2021/05/16 05:01:05;;;;;;;17.00;5.33;;;8.40;99.90;;;;;;5060801;28;20614;-66
2021/05/16 05:03:35;;;;;;;18.03;5.07;;;8.50;99.90;;;;;;5061906;28;20200;-66
2021/05/16 05:06:03;;;;;;;28.20;5.50;;;8.50;99.90;;;;;;5058643;28;20204;-66
2021/05/16 05:08:31;;;;;;;20.20;5.57;;;8.60;99.90;;;;;;5060461;28;20222;-66
2021/05/16 05:10:59;;;;;;;18.93;5.50;;;8.70;99.90;;;;;;5063252;28;20285;-66
2021/05/16 05:13:27;;;;;;;21.00;5.77;;;8.80;99.90;;;;;;5066470;28;20550;-65
2021/05/16 05:15:55;;;;;;;19.30;5.43;;;8.90;99.90;;;;;;5065125;28;20239;-66
2021/05/16 05:18:22;;;;;;;17.60;4.93;;;8.90;99.90;;;;;;5055454;28;20273;-66
2021/05/16 05:20:51;;;;;;;23.33;5.60;;;9.00;99.90;;;;;;5065257;28;20192;-66
2021/05/16 05:23:19;;;;;;;22.73;6.07;;;9.10;99.90;;;;;;5063913;28;20207;-66
2021/05/16 05:25:48;;;;;;;20.10;5.80;;;9.30;99.90;;;;;;5056624;28;20212;-65
2021/05/16 05:28:17;;;;;;;18.57;5.50;;;9.30;99.90;;;;;;5054963;28;20593;-66
2021/05/16 05:30:45;;;;;;;21.07;5.77;;;9.40;99.90;;;;;;5057825;28;20196;-66
2021/05/16 05:33:13;;;;;;;16.97;5.63;;;9.50;99.90;;;;;;5066704;28;20218;-66
2021/05/16 05:35:41;;;;;;;17.60;6.17;;;9.60;99.90;;;;;;5055552;28;20231;-66
2021/05/16 05:38:10;;;;;;;22.83;5.97;;;9.70;99.90;;;;;;5057312;28;20724;-66
2021/05/16 05:40:38;;;;;;;20.93;5.97;;;9.90;99.90;;;;;;5054958;28;20673;-66
2021/05/16 05:43:06;;;;;;;17.17;5.53;;;10.00;99.90;;;;;;5062621;28;20287;-66
2021/05/16 05:45:34;;;;;;;28.37;5.70;;;9.90;99.90;;;;;;5062538;28;20227;-66
2021/05/16 05:48:02;;;;;;;18.87;6.03;;;10.00;99.90;;;;;;5058135;28;20188;-66
2021/05/16 05:50:30;;;;;;;19.60;5.57;;;10.00;99.90;;;;;;5062324;28;20192;-66
2021/05/16 05:53:02;;;;;;;15.77;5.93;;;10.00;99.90;;;;;;5062986;28;20264;-66
2021/05/16 05:55:32;;;;;;;20.17;5.80;;;10.00;99.90;;;;;;5066110;28;20200;-66
2021/05/16 05:58:01;;;;;;;22.20;6.23;;;10.00;99.90;;;;;;5061872;28;20304;-66
2021/05/16 06:00:30;;;;;;;21.27;5.73;;;10.00;99.90;;;;;;5063340;28;20199;-66
2021/05/16 06:02:58;;;;;;;22.70;7.80;;;10.10;99.90;;;;;;5062774;28;20200;-66
2021/05/16 06:05:30;;;;;;;23.43;6.90;;;10.30;99.90;;;;;;5062812;28;20192;-66
2021/05/16 06:07:58;;;;;;;23.50;7.50;;;10.20;99.90;;;;;;5055049;28;20195;-66
2021/05/16 06:10:27;;;;;;;20.60;7.80;;;10.30;99.90;;;;;;5058845;28;20232;-66
2021/05/16 06:12:55;;;;;;;21.97;8.43;;;10.40;99.90;;;;;;5062326;28;20241;-66
2021/05/16 06:15:24;;;;;;;23.67;8.47;;;10.40;99.90;;;;;;5063302;28;20193;-66
2021/05/16 06:17:52;;;;;;;19.53;8.03;;;10.40;99.90;;;;;;5058422;28;20221;-66
2021/05/16 06:20:20;;;;;;;23.67;9.47;;;10.60;99.90;;;;;;5054872;28;20251;-66
2021/05/16 06:22:48;;;;;;;25.20;8.80;;;10.80;99.90;;;;;;5062357;28;21016;-65
2021/05/16 06:25:17;;;;;;;16.63;8.47;;;11.10;99.90;;;;;;5064350;28;20238;-66
2021/05/16 06:27:46;;;;;;;24.53;9.17;;;11.40;99.90;;;;;;5063016;28;20587;-66
2021/05/16 06:30:17;;;;;;;28.27;9.80;;;11.50;99.90;;;;;;5060554;28;20192;-66
2021/05/16 06:32:45;;;;;;;26.90;10.13;;;11.60;99.90;;;;;;5060140;28;20193;-66
2021/05/16 06:35:14;;;;;;;31.17;10.23;;;11.60;99.90;;;;;;5060847;28;20191;-66
2021/05/16 06:37:44;;;;;;;20.07;9.60;;;11.60;99.90;;;;;;5063185;28;20318;-66
2021/05/16 06:40:14;;;;;;;23.70;9.27;;;11.80;99.90;;;;;;5059869;28;20249;-66
2021/05/16 06:42:43;;;;;;;22.43;9.80;;;12.10;99.90;;;;;;5058030;28;20184;-66
2021/05/16 06:45:12;;;;;;;25.83;10.37;;;12.10;99.90;;;;;;5059908;28;20227;-66
2021/05/16 06:47:41;;;;;;;21.40;8.40;;;12.30;99.90;;;;;;5055960;28;20261;-66
2021/05/16 06:50:19;;;;;;;20.00;9.10;;;12.50;99.90;;;;;;5058466;28;20667;-67
2021/05/16 06:52:47;;;;;;;18.07;8.07;;;12.50;99.90;;;;;;5063262;28;20798;-67
2021/05/16 06:55:15;;;;;;;17.07;7.43;;;12.40;99.90;;;;;;5064452;28;20735;-66
2021/05/16 06:57:45;;;;;;;21.20;7.37;;;12.70;99.90;;;;;;5068523;28;20204;-67
2021/05/16 07:00:14;;;;;;;18.47;7.63;;;12.70;99.90;;;;;;5068531;28;20231;-66
2021/05/16 07:02:43;;;;;;;20.17;7.57;;;12.90;99.90;;;;;;5060291;28;20246;-66
2021/05/16 07:05:11;;;;;;;20.23;7.20;;;13.30;99.90;;;;;;5058133;28;20196;-65
2021/05/16 07:07:40;;;;;;;24.97;7.10;;;13.60;99.90;;;;;;5058441;28;20199;-66
2021/05/16 07:10:08;;;;;;;20.10;6.57;;;13.80;99.90;;;;;;5065574;28;20210;-67
2021/05/16 07:12:36;;;;;;;14.03;6.27;;;13.70;99.90;;;;;;5075246;28;20269;-67
2021/05/16 07:15:05;;;;;;;21.60;7.83;;;13.90;99.90;;;;;;5061358;28;20246;-67
2021/05/16 07:17:35;;;;;;;19.20;5.80;;;14.40;99.90;;;;;;5062172;28;21475;-65
2021/05/16 07:20:05;;;;;;;19.70;5.83;;;14.60;99.90;;;;;;5060148;28;20198;-65
2021/05/16 07:22:33;;;;;;;11.27;5.27;;;15.20;99.90;;;;;;5063603;28;20624;-65
2021/05/16 07:25:01;;;;;;;15.20;5.17;;;15.20;99.90;;;;;;5066849;28;20192;-67
2021/05/16 07:27:29;;;;;;;22.50;5.73;;;14.60;99.90;;;;;;5064175;28;20188;-66
2021/05/16 07:29:57;;;;;;;18.57;5.57;;;14.00;99.90;;;;;;5059962;28;20607;-67
2021/05/16 07:32:25;;;;;;;16.53;5.00;;;13.90;99.90;;;;;;5062799;28;20278;-66
2021/05/16 07:34:53;;;;;;;16.27;6.33;;;13.90;99.90;;;;;;5059716;28;21022;-67
2021/05/16 07:37:22;;;;;;;13.63;5.10;;;13.80;99.90;;;;;;5065925;28;20850;-67
2021/05/16 07:39:50;;;;;;;12.10;4.27;;;13.90;99.90;;;;;;5065253;28;20245;-67
2021/05/16 07:42:18;;;;;;;16.77;5.67;;;14.40;99.90;;;;;;5065039;28;20279;-67
2021/05/16 07:45:07;;;;;;;13.93;5.00;;;14.40;99.90;;;;;;5059375;28;20196;-67
2021/05/16 07:47:35;;;;;;;14.63;5.17;;;14.60;99.90;;;;;;5067615;28;20212;-66
2021/05/16 07:50:03;;;;;;;14.97;5.57;;;14.60;99.90;;;;;;5062318;28;20204;-66
2021/05/16 07:52:34;;;;;;;11.93;5.03;;;14.50;99.90;;;;;;5062219;28;20283;-67
2021/05/16 07:55:04;;;;;;;16.27;5.47;;;14.50;99.90;;;;;;5062955;28;20251;-66
2021/05/16 07:57:32;;;;;;;16.70;4.77;;;14.80;99.90;;;;;;5061737;28;20212;-66
2021/05/16 08:00:06;;;;;;;16.33;4.53;;;14.70;99.90;;;;;;5064330;28;20202;-67
2021/05/16 08:02:34;;;;;;;15.17;4.50;;;14.80;99.90;;;;;;5057274;28;20292;-67
2021/05/16 08:05:02;;;;;;;11.73;3.93;;;14.70;99.90;;;;;;5066533;28;20223;-67
2021/05/16 08:07:30;;;;;;;10.13;3.77;;;14.70;99.90;;;;;;5059690;28;20198;-67
2021/05/16 08:09:59;;;;;;;12.03;3.70;;;14.70;99.90;;;;;;5062828;28;20197;-67
2021/05/16 08:12:26;;;;;;;11.73;3.80;;;14.90;99.90;;;;;;5058383;28;20227;-67
2021/05/16 08:14:55;;;;;;;12.30;4.13;;;15.50;99.90;;;;;;5063838;28;20568;-67
2021/05/16 08:17:23;;;;;;;10.93;3.20;;;15.80;99.90;;;;;;5053380;28;20193;-66
2021/05/16 08:19:51;;;;;;;13.93;4.03;;;16.20;99.90;;;;;;5058166;28;20222;-66
2021/05/16 08:22:20;;;;;;;14.97;4.00;;;16.60;99.90;;;;;;5058500;28;20819;-67
2021/05/16 08:24:48;;;;;;;15.33;4.27;;;16.30;99.90;;;;;;5061874;28;20197;-67
2021/05/16 08:27:16;;;;;;;13.13;3.63;;;16.20;99.90;;;;;;5056626;28;20626;-67
2021/05/16 08:29:50;;;;;;;11.33;3.60;;;16.20;99.90;;;;;;5068001;28;20253;-67
2021/05/16 08:32:18;;;;;;;11.30;4.00;;;17.00;99.90;;;;;;5066988;28;20253;-67
2021/05/16 08:34:47;;;;;;;10.30;3.33;;;17.20;99.90;;;;;;5061964;28;20306;-67
2021/05/16 08:37:15;;;;;;;12.70;3.67;;;16.50;99.90;;;;;;5064125;28;21588;-67
2021/05/16 08:39:45;;;;;;;13.53;3.80;;;16.60;99.90;;;;;;5063262;28;20222;-67
2021/05/16 08:42:12;;;;;;;14.17;3.50;;;16.80;99.90;;;;;;5065083;28;20196;-67
2021/05/16 08:44:41;;;;;;;15.37;4.33;;;16.80;99.90;;;;;;5062180;28;20868;-67
2021/05/16 08:47:09;;;;;;;15.87;4.47;;;16.80;99.90;;;;;;5068544;28;20218;-67
2021/05/16 08:49:37;;;;;;;8.57;4.20;;;17.20;99.90;;;;;;5064518;28;20196;-67
2021/05/16 08:52:05;;;;;;;12.37;4.60;;;18.00;99.90;;;;;;5057090;28;20191;-66
2021/05/16 08:54:33;;;;;;;9.40;4.23;;;18.40;99.90;;;;;;5064311;28;20196;-68
2021/05/16 08:57:01;;;;;;;17.00;4.40;;;18.10;99.90;;;;;;5067791;28;20219;-67
2021/05/16 08:59:29;;;;;;;15.77;4.10;;;17.30;99.90;;;;;;5060549;28;20248;-67
2021/05/16 09:01:59;;;;;;;12.13;3.77;;;17.00;99.90;;;;;;5058095;28;20689;-67
2021/05/16 09:04:33;;;;;;;10.40;3.80;;;17.60;99.90;;;;;;5054053;28;20199;-68
2021/05/16 09:07:01;;;;;;;8.50;3.53;;;18.70;99.90;;;;;;5061825;28;20188;-67
2021/05/16 09:09:32;;;;;;;18.30;6.00;;;18.60;99.90;;;;;;5055994;28;20188;-67
2021/05/16 09:12:02;;;;;;;15.90;6.00;;;18.70;99.90;;;;;;5057898;28;20192;-67
2021/05/16 09:14:48;;;;;;;10.53;3.53;;;18.80;99.90;;;;;;5057648;28;20207;-67
2021/05/16 09:17:21;;;;;;;14.23;3.53;;;19.50;99.90;;;;;;5063960;28;20215;-67
2021/05/16 09:19:51;;;;;;;11.90;3.83;;;19.00;99.90;;;;;;5061074;28;20250;-67
2021/05/16 09:22:36;;;;;;;10.27;3.37;;;17.90;99.90;;;;;;5065542;28;20815;-67
2021/05/16 09:25:10;;;;;;;10.10;3.40;;;16.80;99.90;;;;;;5061239;28;20195;-67
2021/05/16 09:27:39;;;;;;;10.77;3.60;;;16.10;99.90;;;;;;5063551;28;20202;-67
2021/05/16 09:30:31;;;;;;;10.93;3.50;;;15.50;99.90;;;;;;5061173;28;20224;-67
2021/05/16 09:33:02;;;;;;;12.70;4.23;;;14.90;99.90;;;;;;5063692;28;20204;-67
2021/05/16 09:35:36;;;;;;;16.13;3.40;;;14.50;99.90;;;;;;5054808;28;20320;-66
2021/05/16 09:38:09;;;;;;;13.10;3.33;;;14.60;99.90;;;;;;5055632;28;20283;-67
2021/05/16 09:40:41;;;;;;;11.40;3.00;;;15.50;99.90;;;;;;5057047;28;20254;-67
2021/05/16 09:43:23;;;;;;;6.37;2.63;;;17.00;99.90;;;;;;5057790;28;20200;-67
2021/05/16 09:45:57;;;;;;;8.00;2.43;;;17.20;99.90;;;;;;5060166;28;20627;-67
2021/05/16 09:48:31;;;;;;;7.37;2.40;;;16.80;99.90;;;;;;5058940;28;20197;-68
2021/05/16 09:51:18;;;;;;;5.77;2.10;;;16.50;99.90;;;;;;5058260;28;20194;-67
2021/05/16 09:53:57;;;;;;;5.63;1.90;;;16.20;99.90;;;;;;5057816;28;20189;-67
2021/05/16 09:56:27;;;;;;;4.53;2.03;;;16.10;99.90;;;;;;5057381;28;20233;-67
2021/05/16 09:58:57;;;;;;;6.93;1.77;;;16.20;99.90;;;;;;5054041;28;20247;-67
2021/05/16 10:01:26;;;;;;;5.77;2.00;;;16.40;99.90;;;;;;5055650;28;20188;-67
2021/05/16 10:03:57;;;;;;;5.83;1.93;;;16.30;99.90;;;;;;5064074;28;20193;-67
2021/05/16 10:06:26;;;;;;;4.77;2.00;;;16.50;99.90;;;;;;5068190;28;20224;-67
2021/05/16 10:08:55;;;;;;;7.00;2.20;;;17.10;99.90;;;;;;5063888;28;20192;-67
2021/05/16 10:11:25;;;;;;;5.43;2.03;;;18.10;99.90;;;;;;5060158;28;20247;-67
2021/05/16 10:13:59;;;;;;;7.20;1.90;;;18.70;99.90;;;;;;5056530;28;20223;-68
2021/05/16 10:16:31;;;;;;;12.70;2.27;;;19.10;99.90;;;;;;5065471;28;20666;-67
2021/05/16 10:19:00;;;;;;;5.67;2.40;;;19.30;99.90;;;;;;5056468;28;20212;-67
2021/05/16 10:21:28;;;;;;;5.70;1.97;;;19.50;99.90;;;;;;5059287;28;20295;-67
2021/05/16 10:24:11;;;;;;;3.87;2.00;;;19.60;99.90;;;;;;5061526;28;20204;-67
2021/05/16 10:26:39;;;;;;;3.53;1.67;;;19.50;99.90;;;;;;5059424;28;20195;-67
2021/05/16 10:29:09;;;;;;;9.30;2.37;;;18.40;99.90;;;;;;5063027;28;20192;-66
2021/05/16 10:31:52;;;;;;;8.80;2.53;;;17.50;99.90;;;;;;5061696;28;20239;-68
2021/05/16 10:34:42;;;;;;;7.60;2.03;;;16.30;99.90;;;;;;5058791;28;20206;-67
2021/05/16 10:37:13;;;;;;;5.07;2.23;;;15.70;99.90;;;;;;5061612;28;20265;-67
2021/05/16 10:39:53;;;;;;;6.17;2.23;;;15.60;99.90;;;;;;5062785;28;20251;-67
2021/05/16 10:42:23;;;;;;;5.17;2.60;;;15.50;99.90;;;;;;5060427;28;20263;-66
2021/05/16 10:45:03;;;;;;;6.53;2.07;;;15.50;99.90;;;;;;5060933;28;20210;-68
2021/05/16 10:47:57;;;;;;;6.10;2.37;;;15.50;99.90;;;;;;5062794;28;20826;-67
2021/05/16 10:50:40;;;;;;;5.73;2.00;;;15.50;99.90;;;;;;5058257;28;20838;-68
2021/05/16 10:53:11;;;;;;;6.93;2.00;;;16.10;99.90;;;;;;5064166;28;20211;-68
2021/05/16 10:55:41;;;;;;;11.03;4.83;;;17.00;99.90;;;;;;5062426;28;20209;-68
2021/05/16 10:58:28;;;;;;;3.67;2.00;;;17.70;99.90;;;;;;5056354;28;20200;-68
2021/05/16 11:01:01;;;;;;;6.37;2.20;;;18.30;99.90;;;;;;5056639;28;20224;-68
2021/05/16 11:03:49;;;;;;;5.30;2.37;;;18.10;99.90;;;;;;5061114;28;20295;-68
2021/05/16 11:06:21;;;;;;;7.50;2.50;;;18.60;99.90;;;;;;5061937;28;20891;-68
2021/05/16 11:09:09;;;;;;;8.60;2.63;;;18.50;99.90;;;;;;5063111;28;20192;-67
2021/05/16 11:12:07;;;;;;;4.80;2.10;;;17.70;99.90;;;;;;5060758;28;20738;-67
2021/05/16 11:14:39;;;;;;;6.67;2.13;;;17.00;99.90;;;;;;5055029;28;20202;-68
2021/05/16 11:17:11;;;;;;;3.90;2.10;;;16.60;99.90;;;;;;5059560;28;20862;-68
2021/05/16 11:19:39;;;;;;;7.27;2.50;;;16.60;99.90;;;;;;5059063;28;20771;-67
2021/05/16 11:22:16;;;;;;;8.20;2.13;;;16.40;99.90;;;;;;5066242;28;20207;-67
2021/05/16 11:24:47;;;;;;;4.17;2.00;;;16.20;99.90;;;;;;5059430;28;20742;-67
2021/05/16 11:27:19;;;;;;;8.33;2.10;;;16.10;99.90;;;;;;5039799;28;21798;-67
2021/05/16 11:30:01;;;;;;;8.30;2.10;;;16.10;99.90;;;;;;5074377;28;20719;-67
2021/05/16 11:32:31;;;;;;;4.77;2.13;;;16.20;99.90;;;;;;5057824;28;20222;-67
2021/05/16 11:35:17;;;;;;;2.77;1.70;;;16.20;99.90;;;;;;5057969;28;20667;-67
2021/05/16 11:37:49;;;;;;;4.13;2.00;;;16.50;99.90;;;;;;5067482;28;20293;-68
2021/05/16 11:40:20;;;;;;;7.47;2.00;;;16.80;99.90;;;;;;5065296;28;20243;-67
2021/05/16 11:42:56;;;;;;;6.03;1.80;;;17.40;99.90;;;;;;5064770;28;20609;-67
2021/05/16 11:45:32;;;;;;;3.67;1.77;;;17.80;99.90;;;;;;5067027;28;20674;-67
2021/05/16 11:48:01;;;;;;;3.50;1.60;;;17.90;99.90;;;;;;5059122;28;20194;-68
2021/05/16 11:50:42;;;;;;;5.37;2.00;;;17.80;99.90;;;;;;5058865;28;20686;-67
2021/05/16 11:53:12;;;;;;;5.73;1.90;;;17.70;99.90;;;;;;5060579;28;20288;-68
2021/05/16 11:55:43;;;;;;;3.37;1.40;;;17.90;99.90;;;;;;5067128;28;20194;-68
2021/05/16 11:58:11;;;;;;;2.10;1.67;;;18.00;99.90;;;;;;5065114;28;20250;-67
2021/05/16 12:00:39;;;;;;;7.23;2.10;;;17.70;99.90;;;;;;5065286;28;20204;-68
2021/05/16 12:03:12;;;;;;;2.57;1.50;;;17.50;99.90;;;;;;5068903;28;20278;-67
2021/05/16 12:05:41;;;;;;;2.53;1.50;;;17.30;99.90;;;;;;5069128;28;20188;-68
2021/05/16 12:08:18;;;;;;;2.87;1.67;;;17.00;99.90;;;;;;5068102;28;20304;-68
2021/05/16 12:10:46;;;;;;;3.57;1.40;;;16.70;99.90;;;;;;5070617;28;20199;-68
2021/05/16 12:13:22;;;;;;;2.03;0.90;;;16.00;99.90;;;;;;5070474;28;20197;-67
2021/05/16 12:15:51;;;;;;;10.40;1.40;;;15.00;99.90;;;;;;5066073;28;20719;-67
2021/05/16 12:18:23;;;;;;;3.70;1.30;;;14.10;99.90;;;;;;5065212;28;20204;-69
2021/05/16 12:21:09;;;;;;;2.47;1.10;;;13.10;99.90;;;;;;5066847;28;20244;-69
2021/05/16 12:23:39;;;;;;;2.03;1.13;;;12.40;99.90;;;;;;5066148;28;20219;-69
2021/05/16 12:26:09;;;;;;;1.10;1.10;;;12.10;99.90;;;;;;5064976;28;20233;-67
2021/05/16 12:28:41;;;;;;;3.07;1.13;;;11.80;99.90;;;;;;5065067;28;20196;-69
2021/05/16 12:31:09;;;;;;;1.47;1.20;;;11.70;99.90;;;;;;5064383;28;20192;-69
2021/05/16 12:33:38;;;;;;;2.30;1.10;;;11.50;99.90;;;;;;5062219;28;20226;-69
2021/05/16 12:36:06;;;;;;;1.33;1.33;;;11.40;99.90;;;;;;5066936;28;20223;-68
2021/05/16 12:38:43;;;;;;;2.43;1.53;;;11.30;99.90;;;;;;5081785;28;20220;-69
2021/05/16 12:41:16;;;;;;;1.90;1.80;;;11.40;99.90;;;;;;5060270;28;20222;-68
2021/05/16 12:44:08;;;;;;;1.30;1.30;;;11.40;99.90;;;;;;5062809;28;20195;-69
2021/05/16 12:46:47;;;;;;;5.27;1.63;;;11.60;99.90;;;;;;5057644;28;20636;-69
2021/05/16 12:49:19;;;;;;;2.23;1.40;;;11.80;99.90;;;;;;5061786;28;20193;-68
2021/05/16 12:51:55;;;;;;;1.20;1.20;;;12.40;99.90;;;;;;5065191;28;20196;-68
2021/05/16 12:54:28;;;;;;;1.40;1.40;;;12.70;99.90;;;;;;5065495;28;20191;-68
2021/05/16 12:56:57;;;;;;;2.33;1.37;;;13.10;99.90;;;;;;5063326;28;20199;-67
2021/05/16 12:59:32;;;;;;;1.53;1.50;;;13.70;99.90;;;;;;5065830;28;20760;-68